CYIO

Pond Inlet Airport

Airport
ICAO code
CYIO
Summary
ICAO Region
NAM
ICAO Territory
Location

Pond Inlet, Nunavut,

Coordinates
72° 42' 0" N , 77° 57' 31" W
KCC
ET
Airport BS
Non Avian Wildlife Hazards to Aircraft
Airport CFIT
Altimeter Temperature Error Correction
Airport GND
Aircraft Ground De/Anti Icing
Airport WX
Fog
Metar
Observation
CYIO 172000Z 25006KT 40SM FEW055 FEW075 FEW250 08/02 A2988 RMK SC1AC1CI1 CI TR SLP125
Station
Pond Inlet, N. W. T.
Date/Time
2022-08-17 20:00:00
Wind direction
250°
Wind speed
06 kts
Lowest cloud amount
few clouds
Temperature
8°C
Dew point
2°C
Humidity
65%
Weather condition
n/a

Description

Airport serving Pond Inlet, Nunavut, Canada, operated by the government of Nunavut

Climatology

Tundra climate (Köppen climate classification ET) - warmest month has an average temperature of 0 - 10 degrees C.

Runways

Designator Length Width Surface Rops
02T/20T 1219 30 GVL No/No

Airport map

Aerial View

SKYbrary Partners:

Safety knowledge contributed by: